createdAt,value
2022-12-13T00:01:20.046Z,100407.38
2022-12-13T00:04:13.833Z,100413.56
2022-12-13T00:07:03.342Z,100416.41
2022-12-13T00:09:52.610Z,100407.53
2022-12-13T00:12:41.892Z,100410.69
2022-12-13T00:15:31.389Z,100395.53
2022-12-13T00:18:20.676Z,100402.53
2022-12-13T00:21:19.002Z,100408.66
2022-12-13T00:24:09.471Z,100419.19
2022-12-13T00:26:58.847Z,100423.25
2022-12-13T00:29:48.269Z,100413.50
2022-12-13T00:32:37.603Z,100406.78
2022-12-13T00:35:26.940Z,100411.16
2022-12-13T00:38:17.753Z,100419.56
2022-12-13T00:41:15.775Z,100414.16
2022-12-13T00:44:06.225Z,100426.59
2022-12-13T00:46:56.681Z,100420.66
2022-12-13T00:49:46.023Z,100427.16
2022-12-13T00:52:35.969Z,100424.97
2022-12-13T00:55:27.066Z,100422.59
2022-12-13T00:58:16.323Z,100429.59
2022-12-13T01:01:08.179Z,100419.63
2022-12-13T01:04:00.499Z,100416.38
2022-12-13T01:06:51.530Z,100415.88
2022-12-13T01:09:42.485Z,100417.22
2022-12-13T01:12:33.459Z,100416.41
2022-12-13T01:15:22.758Z,100423.94
2022-12-13T01:18:13.423Z,100428.81
2022-12-13T01:21:06.434Z,100422.88
2022-12-13T01:23:57.327Z,100421.25
2022-12-13T01:26:46.614Z,100423.94
2022-12-13T01:29:37.908Z,100419.31
2022-12-13T01:32:33.812Z,100416.38
2022-12-13T01:35:23.524Z,100413.13
2022-12-13T01:38:15.665Z,100414.19
2022-12-13T01:41:08.922Z,100403.63
2022-12-13T01:44:08.434Z,100416.53
2022-12-13T01:46:59.154Z,100422.78
2022-12-13T01:49:48.857Z,100420.91
2022-12-13T01:52:38.792Z,100419.84
2022-12-13T01:55:33.503Z,100419.03
2022-12-13T01:58:32.100Z,100419.91
2022-12-13T02:01:21.588Z,100423.22
2022-12-13T02:04:13.725Z,100428.91
2022-12-13T02:07:03.246Z,100423.28
2022-12-13T02:09:56.861Z,100426.03
2022-12-13T02:12:46.926Z,100419.03
2022-12-13T02:15:49.946Z,100423.34
2022-12-13T02:18:56.837Z,100426.56
2022-12-13T02:22:06.801Z,100421.44
2022-12-13T02:25:45.758Z,100436.03
2022-12-13T02:28:56.344Z,100439.84
2022-12-13T02:31:53.870Z,100449.84
2022-12-13T02:34:48.892Z,100444.19
2022-12-13T02:37:52.123Z,100450.69
2022-12-13T02:40:46.754Z,100431.25
2022-12-13T02:43:45.634Z,100450.72
2022-12-13T02:46:41.570Z,100439.69
2022-12-13T02:49:38.340Z,100441.03
2022-12-13T02:52:31.060Z,100446.41
2022-12-13T02:55:23.907Z,100447.50
2022-12-13T02:58:21.302Z,100452.38
2022-12-13T03:01:32.488Z,100449.44
2022-12-13T03:05:07.693Z,100458.06
2022-12-13T03:08:08.681Z,100451.06
2022-12-13T03:11:07.464Z,100459.94
2022-12-13T03:14:00.074Z,100455.34
2022-12-13T03:16:53.850Z,100457.25
2022-12-13T03:19:45.257Z,100451.84
2022-12-13T03:22:36.500Z,100446.41
2022-12-13T03:25:32.922Z,100450.78
2022-12-13T03:28:23.157Z,100439.41
2022-12-13T03:31:12.564Z,100460.47
2022-12-13T03:34:02.078Z,100451.28
2022-12-13T03:36:53.368Z,100447.00
2022-12-13T03:39:42.724Z,100457.25
2022-12-13T03:42:32.090Z,100444.03
2022-12-13T03:45:21.355Z,100440.81
2022-12-13T03:48:10.592Z,100442.69
2022-12-13T03:50:59.947Z,100443.44
2022-12-13T03:53:50.653Z,100447.75
2022-12-13T03:56:39.899Z,100447.97
2022-12-13T03:59:29.470Z,100433.09
2022-12-13T04:02:31.007Z,100433.91
2022-12-13T04:05:21.156Z,100434.44
2022-12-13T04:08:21.491Z,100434.97
2022-12-13T04:11:30.255Z,100427.09
2022-12-13T04:14:21.921Z,100431.97
2022-12-13T04:17:12.351Z,100419.28
2022-12-13T04:20:01.736Z,100410.88
2022-12-13T04:22:51.317Z,100427.31
2022-12-13T04:25:41.934Z,100426.50
2022-12-13T04:28:32.621Z,100427.56
2022-12-13T04:31:21.997Z,100424.63
2022-12-13T04:34:11.632Z,100429.47
2022-12-13T04:37:01.119Z,100424.06
2022-12-13T04:39:50.465Z,100416.00
2022-12-13T04:42:40.039Z,100411.41
2022-12-13T04:45:30.904Z,100418.41
2022-12-13T04:48:31.215Z,100416.00
2022-12-13T04:51:21.382Z,100420.63
2022-12-13T04:54:12.990Z,100419.31
2022-12-13T04:57:14.341Z,100410.66
2022-12-13T05:00:04.133Z,100379.59
2022-12-13T05:02:54.857Z,100425.59
2022-12-13T05:05:44.236Z,100426.69
2022-12-13T05:08:33.921Z,100424.03
2022-12-13T05:11:23.563Z,100419.19
2022-12-13T05:14:13.067Z,100420.25
2022-12-13T05:17:03.262Z,100421.88
2022-12-13T05:19:53.960Z,100423.81
2022-12-13T05:22:43.279Z,100411.16
2022-12-13T05:25:33.910Z,100416.84
2022-12-13T05:28:27.877Z,100423.88
2022-12-13T05:31:23.438Z,100416.31
2022-12-13T05:34:13.538Z,100417.41
2022-12-13T05:37:04.584Z,100408.50
2022-12-13T05:39:53.891Z,100412.59
2022-12-13T05:42:43.242Z,100417.44
2022-12-13T05:45:33.796Z,100410.44
2022-12-13T05:48:24.645Z,100410.16
2022-12-13T05:51:14.544Z,100420.72
2022-12-13T05:54:05.392Z,100422.34
2022-12-13T05:56:54.690Z,100417.75
2022-12-13T05:59:44.388Z,100413.19
2022-12-13T06:02:33.826Z,100414.28
2022-12-13T06:05:23.200Z,100405.09
2022-12-13T06:08:24.629Z,100406.47
2022-12-13T06:11:31.746Z,100418.59
2022-12-13T06:14:23.300Z,100414.03
2022-12-13T06:17:12.674Z,100407.28
2022-12-13T06:20:02.231Z,100397.03
2022-12-13T06:23:11.772Z,100411.63
2022-12-13T06:26:03.656Z,100415.13
2022-12-13T06:28:54.396Z,100419.19
2022-12-13T06:31:43.748Z,100419.44
2022-12-13T06:34:36.165Z,100421.09
2022-12-13T06:37:25.671Z,100418.69
2022-12-13T06:40:18.737Z,100414.09
2022-12-13T06:43:10.960Z,100406.53
2022-12-13T06:46:03.450Z,100406.03
2022-12-13T06:48:53.984Z,100406.25
2022-12-13T06:51:43.361Z,100405.47
2022-12-13T06:54:33.130Z,100401.44
2022-12-13T06:57:22.408Z,100411.41
2022-12-13T07:00:13.435Z,100404.94
2022-12-13T07:03:04.175Z,100404.13
2022-12-13T07:05:56.855Z,100406.03
2022-12-13T07:08:53.472Z,100398.47
2022-12-13T07:11:45.840Z,100409.03
2022-12-13T07:14:40.824Z,100400.38
2022-12-13T07:17:31.923Z,100404.72
2022-12-13T07:20:25.179Z,100402.81
2022-12-13T07:23:14.770Z,100399.81
2022-12-13T07:26:05.214Z,100384.72
2022-12-13T07:28:55.545Z,100383.63
2022-12-13T07:31:45.108Z,100385.81
2022-12-13T07:34:34.641Z,100389.31
2022-12-13T07:37:29.517Z,100391.22
2022-12-13T07:40:20.495Z,100385.81
2022-12-13T07:43:12.029Z,100382.31
2022-12-13T07:46:02.744Z,100395.00
2022-12-13T07:48:52.156Z,100393.38
2022-12-13T07:51:51.205Z,100395.22
2022-12-13T07:54:41.967Z,100396.59
2022-12-13T07:57:31.575Z,100397.38
2022-12-13T08:00:24.560Z,100396.00
2022-12-13T08:03:18.168Z,100399.25
2022-12-13T08:06:15.217Z,100388.16
2022-12-13T08:09:06.320Z,100370.31
2022-12-13T08:11:57.163Z,100379.75
2022-12-13T08:14:53.102Z,100397.63
2022-12-13T08:17:42.889Z,100389.00
2022-12-13T08:20:32.331Z,100396.03
2022-12-13T08:23:22.331Z,100400.09
2022-12-13T08:26:12.345Z,100399.84
2022-12-13T08:29:03.444Z,100405.00
2022-12-13T08:31:54.061Z,100413.09
2022-12-13T08:34:44.135Z,100395.84
2022-12-13T08:37:33.538Z,100398.31
2022-12-13T08:40:22.952Z,100391.56
2022-12-13T08:43:13.064Z,100383.47
2022-12-13T08:46:04.090Z,100400.75
2022-12-13T08:48:55.169Z,100410.47
2022-12-13T08:51:44.580Z,100410.22
2022-12-13T08:54:35.059Z,100412.94
2022-12-13T08:57:24.455Z,100418.88
2022-12-13T09:00:17.343Z,100411.88
2022-12-13T09:03:09.913Z,100406.72
2022-12-13T09:06:06.664Z,100401.59
2022-12-13T09:08:56.222Z,100413.50
2022-12-13T09:11:45.578Z,100411.31
2022-12-13T09:14:35.513Z,100417.53
2022-12-13T09:17:25.365Z,100420.78
2022-12-13T09:20:29.017Z,100415.09
2022-12-13T09:23:23.895Z,100414.00
2022-12-13T09:26:16.557Z,100405.63
2022-12-13T09:29:11.037Z,100413.19
2022-12-13T09:32:02.122Z,100414.81
2022-12-13T09:34:51.568Z,100412.91
2022-12-13T09:37:45.926Z,100421.84
2022-12-13T09:40:38.464Z,100415.59
2022-12-13T09:43:33.546Z,100410.75
2022-12-13T09:46:44.062Z,100422.38
2022-12-13T09:49:39.414Z,100418.28
2022-12-13T09:52:39.683Z,100418.84
2022-12-13T09:55:35.598Z,100420.47
2022-12-13T09:58:30.254Z,100428.03
2022-12-13T10:01:22.505Z,100432.06
2022-12-13T10:04:16.045Z,100435.84
2022-12-13T10:07:13.636Z,100437.19
2022-12-13T10:10:03.051Z,100437.44
2022-12-13T10:13:03.773Z,100440.41
2022-12-13T10:16:00.194Z,100437.69
2022-12-13T10:18:52.034Z,100427.94
2022-12-13T10:21:48.726Z,100427.38
2022-12-13T10:24:53.206Z,100419.75
2022-12-13T10:27:45.430Z,100418.16
2022-12-13T10:30:46.331Z,100432.16
2022-12-13T10:33:42.020Z,100431.31
2022-12-13T10:36:35.792Z,100429.38
2022-12-13T10:39:40.870Z,100419.06
2022-12-13T10:42:34.025Z,100427.19
2022-12-13T10:45:25.075Z,100428.25
2022-12-13T10:48:25.139Z,100420.94
2022-12-13T10:51:18.006Z,100424.69
2022-12-13T10:54:15.410Z,100423.59
2022-12-13T10:57:05.035Z,100425.00
2022-12-13T10:59:54.687Z,100425.56
2022-12-13T11:02:56.173Z,100401.47
2022-12-13T11:05:50.355Z,100416.03
2022-12-13T11:08:39.813Z,100418.38
2022-12-13T11:11:31.563Z,100404.25
2022-12-13T11:14:32.367Z,100418.00
2022-12-13T11:17:25.851Z,100419.06
2022-12-13T11:20:19.306Z,100421.69
2022-12-13T11:23:31.231Z,100412.38
2022-12-13T11:26:24.462Z,100399.59
2022-12-13T11:29:48.051Z,100412.53
2022-12-13T11:33:04.282Z,100416.91
2022-12-13T11:36:24.892Z,100407.56
2022-12-13T11:39:28.205Z,100395.53
2022-12-13T11:42:26.499Z,100396.00
2022-12-13T11:45:23.081Z,100387.63
2022-12-13T11:48:31.369Z,100403.63
2022-12-13T11:51:29.904Z,100399.81
2022-12-13T11:54:29.393Z,100386.91
2022-12-13T11:57:44.164Z,100393.75
2022-12-13T12:00:38.195Z,100387.03
2022-12-13T12:03:38.637Z,100373.75
2022-12-13T12:06:34.231Z,100381.91
2022-12-13T12:09:29.185Z,100377.50
2022-12-13T12:12:31.444Z,100373.47
2022-12-13T12:15:27.388Z,100375.31
2022-12-13T12:18:18.151Z,100366.75
2022-12-13T12:21:56.543Z,100389.97
2022-12-13T12:24:57.434Z,100378.34
2022-12-13T12:27:56.407Z,100379.13
2022-12-13T12:30:57.015Z,100382.63
2022-12-13T12:33:58.686Z,100375.59
2022-12-13T12:37:05.501Z,100380.44
2022-12-13T12:41:07.520Z,100363.31
2022-12-13T12:43:46.169Z,100354.88
2022-12-13T12:47:28.584Z,100361.28
2022-12-13T12:50:31.595Z,100357.72
2022-12-13T12:53:39.125Z,100363.66
2022-12-13T12:56:40.632Z,100364.47
2022-12-13T12:59:41.568Z,100346.19
2022-12-13T13:02:41.169Z,100369.38
2022-12-13T13:05:40.135Z,100356.41
2022-12-13T13:08:37.187Z,100373.16
2022-12-13T13:11:29.199Z,100374.69
2022-12-13T13:14:34.960Z,100358.75
2022-12-13T13:17:47.021Z,100361.75
2022-12-13T13:20:36.758Z,100370.88
2022-12-13T13:23:38.690Z,100367.44
2022-12-13T13:26:36.276Z,100371.19
2022-12-13T13:29:37.334Z,100368.56
2022-12-13T13:32:30.366Z,100366.50
2022-12-13T13:35:54.506Z,100366.69
2022-12-13T13:38:55.026Z,100363.31
2022-12-13T13:42:10.000Z,100357.03
2022-12-13T13:45:27.339Z,100344.63
2022-12-13T13:48:37.039Z,100359.81
2022-12-13T13:55:44.492Z,100350.09
2022-12-13T13:59:31.846Z,100340.38
2022-12-13T14:06:01.076Z,100349.41
2022-12-13T14:09:15.793Z,100348.53
2022-12-13T14:12:56.025Z,100338.31
2022-12-13T14:16:47.432Z,100337.50
2022-12-13T14:20:19.494Z,100329.66
2022-12-13T14:23:22.463Z,100329.09
2022-12-13T14:26:42.058Z,100329.09
2022-12-13T14:29:38.814Z,100313.16
2022-12-13T14:32:32.933Z,100320.50
2022-12-13T14:35:28.775Z,100315.13
2022-12-13T14:38:24.637Z,100312.69
2022-12-13T14:41:20.609Z,100309.19
2022-12-13T14:44:17.771Z,100302.25
2022-12-13T14:47:09.672Z,100315.00
2022-12-13T14:49:59.963Z,100310.16
2022-12-13T14:52:51.182Z,100313.47
2022-12-13T14:55:42.606Z,100314.31
2022-12-13T14:58:32.109Z,100325.16
2022-12-13T15:01:29.152Z,100309.56
2022-12-13T15:04:24.765Z,100315.34
2022-12-13T15:07:22.377Z,100313.19
2022-12-13T15:10:24.505Z,100300.53
2022-12-13T15:13:29.892Z,100297.91
2022-12-13T15:16:28.631Z,100306.59
2022-12-13T15:19:31.133Z,100303.97
2022-12-13T15:22:29.918Z,100309.41
2022-12-13T15:25:23.087Z,100308.63
2022-12-13T15:28:21.163Z,100300.56
2022-12-13T15:31:14.046Z,100301.66
2022-12-13T15:34:38.099Z,100304.09
2022-12-13T15:37:34.030Z,100311.94
2022-12-13T15:40:24.592Z,100309.44
2022-12-13T15:43:18.159Z,100307.19
2022-12-13T15:46:07.984Z,100306.66
2022-12-13T15:49:02.164Z,100291.00
2022-12-13T15:52:05.490Z,100303.66
2022-12-13T15:54:59.223Z,100303.47
2022-12-13T15:57:52.387Z,100303.19
2022-12-13T16:00:50.644Z,100303.47
2022-12-13T16:03:44.450Z,100305.06
2022-12-13T16:06:36.536Z,100293.66
2022-12-13T16:09:30.156Z,100301.78
2022-12-13T16:12:26.680Z,100286.88
2022-12-13T16:15:20.524Z,100285.47
2022-12-13T16:18:26.643Z,100298.72
2022-12-13T16:21:16.166Z,100290.28
2022-12-13T16:24:07.700Z,100277.38
2022-12-13T16:26:57.091Z,100296.50
2022-12-13T16:29:48.774Z,100300.00
2022-12-13T16:33:02.822Z,100290.47
2022-12-13T16:35:47.391Z,100296.69
2022-12-13T16:38:36.994Z,100299.94
2022-12-13T16:41:27.993Z,100285.84
2022-12-13T16:44:24.988Z,100293.94
2022-12-13T16:47:24.368Z,100290.69
2022-12-13T16:50:21.996Z,100283.34
2022-12-13T16:53:17.014Z,100278.25
2022-12-13T16:56:11.281Z,100285.28
2022-12-13T16:59:02.177Z,100291.19
2022-12-13T17:01:51.921Z,100283.91
2022-12-13T17:04:41.650Z,100278.44
2022-12-13T17:07:31.024Z,100287.34
2022-12-13T17:10:21.543Z,100280.81
2022-12-13T17:13:11.838Z,100268.38
2022-12-13T17:16:05.230Z,100276.22
2022-12-13T17:18:55.844Z,100271.06
2022-12-13T17:21:45.236Z,100271.13
2022-12-13T17:24:35.749Z,100291.63
2022-12-13T17:27:25.191Z,100276.69
2022-12-13T17:30:18.835Z,100276.75
2022-12-13T17:33:12.003Z,100288.34
2022-12-13T17:36:03.558Z,100281.63
2022-12-13T17:38:53.355Z,100284.00
2022-12-13T17:41:42.883Z,100277.56
2022-12-13T17:44:44.099Z,100281.88
2022-12-13T17:47:33.601Z,100283.50
2022-12-13T17:50:24.280Z,100286.13
2022-12-13T17:53:13.604Z,100288.59
2022-12-13T17:56:07.841Z,100272.41
2022-12-13T17:58:57.387Z,100262.44
2022-12-13T18:01:47.697Z,100270.44
2022-12-13T18:04:37.247Z,100283.41
2022-12-13T18:07:28.701Z,100276.38
2022-12-13T18:10:18.912Z,100276.22
2022-12-13T18:13:08.429Z,100269.75
2022-12-13T18:15:58.506Z,100267.56
2022-12-13T18:18:54.839Z,100258.66
2022-12-13T18:21:45.047Z,100268.38
2022-12-13T18:24:35.702Z,100269.47
2022-12-13T18:27:24.992Z,100263.28
2022-12-13T18:30:15.147Z,100265.69
2022-12-13T18:33:05.495Z,100271.13
2022-12-13T18:35:54.957Z,100270.88
2022-12-13T18:38:44.863Z,100271.16
2022-12-13T18:41:36.634Z,100272.78
2022-12-13T18:44:26.037Z,100267.41
2022-12-13T18:47:20.918Z,100267.28
2022-12-13T18:50:11.460Z,100273.34
2022-12-13T18:53:00.763Z,100274.31
2022-12-13T18:55:50.114Z,100260.38
2022-12-13T18:58:41.002Z,100256.97
2022-12-13T19:01:30.710Z,100270.81
2022-12-13T19:04:20.159Z,100268.47
2022-12-13T19:07:10.242Z,100261.75
2022-12-13T19:09:59.488Z,100254.25
2022-12-13T19:12:48.934Z,100258.31
2022-12-13T19:15:41.858Z,100259.72
2022-12-13T19:18:31.248Z,100262.94
2022-12-13T19:21:23.131Z,100261.63
2022-12-13T19:24:15.025Z,100263.50
2022-12-13T19:27:04.357Z,100251.06
2022-12-13T19:29:53.845Z,100236.75
2022-12-13T19:32:48.381Z,100260.75
2022-12-13T19:35:37.919Z,100262.13
2022-12-13T19:38:27.414Z,100256.50
2022-12-13T19:41:20.096Z,100260.00
2022-12-13T19:44:10.279Z,100254.38
2022-12-13T19:47:00.209Z,100263.88
2022-12-13T19:49:50.954Z,100266.59
2022-12-13T19:52:40.370Z,100269.59
2022-12-13T19:55:29.892Z,100276.09
2022-12-13T19:58:19.260Z,100265.31
2022-12-13T20:01:09.491Z,100277.75
2022-12-13T20:03:59.014Z,100279.34
2022-12-13T20:06:49.750Z,100273.94
2022-12-13T20:09:40.385Z,100277.75
2022-12-13T20:12:33.082Z,100289.59
2022-12-13T20:15:27.393Z,100284.19
2022-12-13T20:18:16.879Z,100283.34
2022-12-13T20:21:12.470Z,100282.53
2022-12-13T20:24:04.171Z,100281.13
2022-12-13T20:26:53.567Z,100278.66
2022-12-13T20:29:43.109Z,100275.13
2022-12-13T20:32:38.165Z,100273.25
2022-12-13T20:35:27.875Z,100267.84
2022-12-13T20:38:18.475Z,100272.94
2022-12-13T20:41:11.355Z,100270.47
2022-12-13T20:44:02.444Z,100262.13
2022-12-13T20:46:51.853Z,100271.03
2022-12-13T20:49:42.872Z,100273.69
2022-12-13T20:52:37.840Z,100269.38
2022-12-13T20:55:27.419Z,100268.28
2022-12-13T20:58:18.172Z,100269.38
2022-12-13T21:01:08.393Z,100260.16
2022-12-13T21:04:00.391Z,100259.06
2022-12-13T21:06:49.792Z,100266.59
2022-12-13T21:09:39.112Z,100262.25
2022-12-13T21:12:30.600Z,100268.47
2022-12-13T21:15:21.549Z,100255.75
2022-12-13T21:18:10.894Z,100266.72
2022-12-13T21:21:00.124Z,100271.28
2022-12-13T21:23:49.628Z,100263.66
2022-12-13T21:26:38.852Z,100268.38
2022-12-13T21:29:28.318Z,100276.09
2022-12-13T21:32:19.110Z,100268.75
2022-12-13T21:35:11.894Z,100283.78
2022-12-13T21:38:05.320Z,100281.25
2022-12-13T21:40:54.933Z,100275.50
2022-12-13T21:43:44.266Z,100282.31
2022-12-13T21:49:48.989Z,100288.75
2022-12-13T21:52:38.773Z,100290.81
2022-12-13T21:55:38.847Z,100293.53
2022-12-13T21:58:45.820Z,100293.75
2022-12-13T22:01:48.926Z,100279.09
2022-12-13T22:04:40.882Z,100279.97
2022-12-13T22:07:34.584Z,100293.72
2022-12-13T22:10:23.884Z,100292.81
2022-12-13T22:13:13.219Z,100289.13
2022-12-13T22:16:02.684Z,100298.53
2022-12-13T22:18:55.564Z,100284.25
2022-12-13T22:21:44.985Z,100290.91
2022-12-13T22:24:35.696Z,100297.09
2022-12-13T22:27:25.926Z,100294.69
2022-12-13T22:30:15.685Z,100293.06
2022-12-13T22:33:05.568Z,100290.41
2022-12-13T22:35:54.811Z,100288.22
2022-12-13T22:38:44.653Z,100292.31
2022-12-13T22:41:35.540Z,100298.25
2022-12-13T22:44:24.828Z,100298.78
2022-12-13T22:47:14.267Z,100299.06
2022-12-13T22:50:03.591Z,100303.94
2022-12-13T22:52:52.919Z,100308.22
2022-12-13T22:55:42.232Z,100313.38
2022-12-13T22:58:33.458Z,100315.00
2022-12-13T23:01:25.253Z,100303.13
2022-12-13T23:04:14.683Z,100297.44
2022-12-13T23:07:04.505Z,100314.25
2022-12-13T23:09:53.817Z,100313.38
2022-12-13T23:13:06.007Z,100324.00
2022-12-13T23:15:57.692Z,100314.44
2022-12-13T23:18:47.273Z,100321.97
2022-12-13T23:21:36.607Z,100322.56
2022-12-13T23:24:26.190Z,100316.84
2022-12-13T23:27:15.549Z,100329.09
2022-12-13T23:30:06.207Z,100331.78
2022-12-13T23:32:57.326Z,100327.00
2022-12-13T23:35:46.573Z,100331.03
2022-12-13T23:38:36.624Z,100330.22
2022-12-13T23:41:33.539Z,100324.28
2022-12-13T23:44:23.493Z,100335.63
2022-12-13T23:47:13.002Z,100333.78
2022-12-13T23:50:03.654Z,100334.66
2022-12-13T23:52:52.929Z,100346.00
2022-12-13T23:55:42.222Z,100335.69
2022-12-13T23:58:39.278Z,100339.50
